Time;durP1;ratioP1;P1;durP2;ratioP2;P2;SDS_P1;SDS_P2;PMS_P1;PMS_P2;Temp;Humidity;BMP_temperature;BMP_pressure;BME280_temperature;BME280_humidity;BME280_pressure;Samples;Min_cycle;Max_cycle;Signal;HPM_P1;HPM_P2
2021/09/16 00:00:08;;;;;;;;;0.00;0.00;;;;;18.81;65.50;101276.28;5088384;27;47166;-86
2021/09/16 00:02:34;;;;;;;;;0.00;0.00;;;;;18.44;65.38;101219.78;5088495;27;45322;-85
2021/09/16 00:04:59;;;;;;;;;0.00;0.00;;;;;18.25;64.96;101191.06;5105370;27;45529;-83
2021/09/16 00:07:25;;;;;;;;;0.00;0.00;;;;;18.48;65.04;101246.06;5085781;27;45505;-83
2021/09/16 00:09:50;;;;;;;;;0.00;0.00;;;;;18.52;65.47;101259.16;5087458;27;47575;-84
2021/09/16 00:12:16;;;;;;;;;0.00;0.00;;;;;18.45;65.45;101256.66;5087748;27;45194;-84
2021/09/16 00:14:41;;;;;;;;;0.00;0.00;;;;;18.65;65.38;101284.44;5085996;27;45435;-84
2021/09/16 00:17:06;;;;;;;;;0.00;0.00;;;;;18.60;65.16;101302.09;5105307;27;45130;-83
2021/09/16 00:19:32;;;;;;;;;0.00;0.00;;;;;18.26;65.27;101260.44;5104557;27;45988;-84
2021/09/16 00:21:57;;;;;;;;;0.00;0.00;;;;;18.55;65.36;101319.75;5108570;27;45313;-83
2021/09/16 00:24:22;;;;;;;;;0.00;0.00;;;;;18.21;65.48;101271.06;5104854;27;45481;-84
2021/09/16 00:26:48;;;;;;;;;0.00;0.00;;;;;18.21;65.71;101260.53;5105185;27;45545;-83
2021/09/16 00:29:14;;;;;;;;;0.00;0.00;;;;;18.15;65.70;101243.03;5086027;27;46870;-83
2021/09/16 00:31:40;;;;;;;;;0.00;0.00;;;;;18.57;65.61;101304.78;5087583;27;45459;-82
2021/09/16 00:34:05;;;;;;;;;1.25;0.00;;;;;18.41;65.53;101283.91;5088311;27;45335;-84
2021/09/16 00:36:31;;;;;;;;;0.00;0.00;;;;;18.31;65.89;101271.78;5105750;27;45465;-85
2021/09/16 00:38:56;;;;;;;;;0.00;0.00;;;;;18.25;65.54;101250.81;5086192;27;48057;-85
2021/09/16 00:41:21;;;;;;;;;0.00;0.00;;;;;18.34;65.74;101259.44;5104480;27;45290;-84
2021/09/16 00:43:47;;;;;;;;;0.00;0.00;;;;;18.49;65.75;101295.22;5109635;27;45300;-84
2021/09/16 00:46:12;;;;;;;;;0.00;0.00;;;;;18.40;65.36;101303.28;5104406;27;45230;-84
2021/09/16 00:48:37;;;;;;;;;0.00;0.00;;;;;18.25;65.83;101299.09;5085807;27;47562;-84
2021/09/16 00:51:03;;;;;;;;;0.00;0.00;;;;;17.84;66.19;101246.97;5104724;27;45433;-85
2021/09/16 00:53:31;;;;;;;;;0.00;0.00;;;;;18.36;66.30;101327.94;5089953;27;45244;-82
2021/09/16 00:55:58;;;;;;;;;1.00;0.00;;;;;18.37;66.29;101342.84;5105950;27;45290;-85
2021/09/16 00:58:25;;;;;;;;;0.00;0.00;;;;;18.30;66.28;101341.19;5104152;27;45324;-85
2021/09/16 01:00:52;;;;;;;;;0.00;0.00;;;;;17.71;66.48;101254.13;5085380;27;45347;-83
2021/09/16 01:03:18;;;;;;;;;0.00;0.00;;;;;18.23;66.51;101329.88;5105762;27;45454;-86
2021/09/16 01:05:43;;;;;;;;;0.75;0.00;;;;;18.10;66.39;101314.25;5087906;27;45313;-84
2021/09/16 01:08:08;;;;;;;;;0.00;0.00;;;;;18.10;66.40;101308.97;5084857;27;46865;-84
2021/09/16 01:10:34;;;;;;;;;0.00;0.00;;;;;18.03;66.43;101298.50;5104292;27;45239;-84
2021/09/16 01:12:59;;;;;;;;;0.00;0.00;;;;;18.20;66.61;101317.63;5106175;27;45269;-84
2021/09/16 01:15:25;;;;;;;;;0.00;0.00;;;;;18.11;66.40;101304.59;5090690;27;45513;-85
2021/09/16 01:17:50;;;;;;;;;0.00;0.00;;;;;18.13;66.69;101315.09;5085965;27;48446;-84
2021/09/16 01:20:16;;;;;;;;;0.00;0.00;;;;;18.25;66.29;101349.16;5104486;27;45265;-85
2021/09/16 01:22:42;;;;;;;;;0.00;0.00;;;;;18.19;66.99;101344.00;5103163;27;45230;-84
2021/09/16 01:25:08;;;;;;;;;0.75;0.00;;;;;17.91;66.63;101318.84;5067350;28;45343;-84
2021/09/16 01:27:34;;;;;;;;;0.00;0.00;;;;;18.00;67.02;101344.19;5112123;27;46999;-84
2021/09/16 01:30:00;;;;;;;;;0.00;0.00;;;;;17.84;67.02;101315.44;5086456;27;45702;-83
2021/09/16 01:32:25;;;;;;;;;1.00;0.00;;;;;17.62;67.53;101271.81;5086406;27;45358;-84
2021/09/16 01:34:52;;;;;;;;;0.00;0.00;;;;;18.15;67.43;101342.28;5086356;27;45330;-83
2021/09/16 01:37:18;;;;;;;;;0.00;0.00;;;;;18.16;67.39;101338.78;5088221;27;46604;-84
2021/09/16 01:39:44;;;;;;;;;0.00;0.00;;;;;18.19;67.32;101344.00;5089747;27;45517;-83
2021/09/16 01:42:09;;;;;;;;;0.00;0.00;;;;;18.10;66.68;101334.47;5090029;27;45197;-83
2021/09/16 01:44:35;;;;;;;;;0.00;0.00;;;;;17.72;67.04;101282.22;5088854;27;45229;-83
2021/09/16 01:47:03;;;;;;;;;0.00;0.00;;;;;18.09;66.83;101361.63;5103121;27;46962;-83
2021/09/16 01:49:30;;;;;;;;;0.00;0.00;;;;;17.93;67.62;101346.03;5100989;27;45405;-83
2021/09/16 01:51:56;;;;;;;;;0.00;0.00;;;;;17.85;67.48;101334.72;5105730;27;45390;-84
2021/09/16 01:54:21;;;;;;;;;0.00;0.00;;;;;17.65;67.70;101316.53;5093551;27;45503;-84
2021/09/16 01:56:47;;;;;;;;;0.00;0.00;;;;;17.78;67.85;101346.22;5084476;27;48053;-84
2021/09/16 01:59:13;;;;;;;;;1.50;0.00;;;;;17.50;67.94;101320.22;5086754;27;45559;-84
2021/09/16 02:01:38;;;;;;;;;0.00;0.00;;;;;17.64;68.05;101349.03;5103833;27;45270;-82
2021/09/16 02:04:03;;;;;;;;;0.00;0.00;;;;;17.43;68.38;101319.41;5103781;27;45210;-82
2021/09/16 02:06:29;;;;;;;;;0.75;0.00;;;;;17.64;68.50;101365.66;5085054;27;47316;-82
2021/09/16 02:08:54;;;;;;;;;0.00;0.00;;;;;17.37;68.20;101327.38;5085757;27;45279;-82
2021/09/16 02:11:20;;;;;;;;;1.50;0.00;;;;;17.39;68.51;101336.13;5084708;27;45464;-82
2021/09/16 02:13:46;;;;;;;;;0.00;0.00;;;;;17.59;68.51;101384.19;5088186;27;45170;-82
2021/09/16 02:16:11;;;;;;;;;0.00;0.00;;;;;17.30;68.76;101323.94;5087971;27;46679;-82
2021/09/16 02:18:37;;;;;;;;;0.00;0.00;;;;;17.59;68.86;101375.41;5089145;27;45279;-82
2021/09/16 02:21:02;;;;;;;;;0.00;0.00;;;;;17.29;68.64;101314.28;5089145;27;45336;-82
2021/09/16 02:23:28;;;;;;;;;0.00;0.00;;;;;17.34;68.18;101320.38;5087037;27;45694;-83
2021/09/16 02:25:53;;;;;;;;;0.25;0.25;;;;;17.68;68.27;101371.78;5088178;27;46754;-83
2021/09/16 02:28:19;;;;;;;;;0.00;0.00;;;;;17.40;68.38;101319.44;5088442;27;45295;-82
2021/09/16 02:30:44;;;;;;;;;0.00;0.00;;;;;17.42;68.58;101321.16;5089246;27;45460;-83
2021/09/16 02:33:11;;;;;;;;;0.00;0.00;;;;;17.59;68.15;101355.22;5088629;27;45460;-83
2021/09/16 02:35:36;;;;;;;;;0.00;0.00;;;;;17.69;68.31;101381.41;5088044;27;48271;-82
2021/09/16 02:38:02;;;;;;;;;0.00;0.00;;;;;17.28;68.17;101318.69;5086716;27;45295;-84
2021/09/16 02:40:28;;;;;;;;;0.25;0.25;;;;;17.59;68.09;101384.19;5106005;27;45202;-83
2021/09/16 02:42:53;;;;;;;;;0.00;0.00;;;;;17.57;68.72;101371.91;5089713;27;45556;-83
2021/09/16 02:45:19;;;;;;;;;0.00;0.00;;;;;17.66;68.52;101379.72;5087085;27;46498;-83
2021/09/16 02:47:44;;;;;;;;;0.00;0.00;;;;;17.54;68.56;101351.75;5087879;27;45287;-82
2021/09/16 02:50:11;;;;;;;;;0.00;0.00;;;;;17.68;68.48;101383.22;5088234;27;45353;-84
2021/09/16 02:52:37;;;;;;;;;1.00;0.00;;;;;17.65;68.87;101364.81;5087826;27;45756;-83
2021/09/16 02:55:03;;;;;;;;;0.00;0.00;;;;;17.79;68.18;101396.22;5088208;27;45653;-84
2021/09/16 02:57:29;;;;;;;;;0.00;0.00;;;;;17.73;68.27;101386.66;5087400;27;45419;-83
2021/09/16 02:59:55;;;;;;;;;0.00;0.00;;;;;17.51;68.35;101366.69;5086765;27;45512;-83
2021/09/16 03:02:20;;;;;;;;;0.00;0.00;;;;;17.45;68.65;101380.78;5087768;27;45640;-82
2021/09/16 03:04:46;;;;;;;;;0.00;0.00;;;;;17.27;68.96;101368.69;5087581;27;47330;-83
2021/09/16 03:07:11;;;;;;;;;0.00;0.00;;;;;17.22;69.51;101366.13;5124631;27;45372;-82
2021/09/16 03:09:37;;;;;;;;;0.00;0.00;;;;;17.39;69.42;101389.63;5086738;27;45375;-84
2021/09/16 03:12:02;;;;;;;;;0.00;0.00;;;;;17.02;68.91;101339.94;5106194;27;45314;-83
2021/09/16 03:14:28;;;;;;;;;0.00;0.00;;;;;17.09;69.02;101350.44;5086848;27;46844;-84
2021/09/16 03:16:53;;;;;;;;;1.00;0.00;;;;;17.34;68.85;101387.03;5088155;27;45311;-83
2021/09/16 03:19:18;;;;;;;;;0.00;0.00;;;;;17.48;68.91;101401.81;5088010;27;45325;-83
2021/09/16 03:21:44;;;;;;;;;0.00;0.00;;;;;17.22;68.85;101347.69;5106150;27;45388;-84
2021/09/16 03:24:09;;;;;;;;;0.00;0.00;;;;;17.52;68.90;101407.94;5105758;27;45519;-84
2021/09/16 03:26:35;;;;;;;;;1.00;0.00;;;;;17.38;69.25;101395.78;5105709;27;45297;-85
2021/09/16 03:29:00;;;;;;;;;0.00;0.00;;;;;16.98;69.32;101331.22;5106997;27;45180;-82
2021/09/16 03:31:25;;;;;;;;;0.00;0.00;;;;;17.15;69.00;101364.44;5088536;27;45453;-82
2021/09/16 03:33:51;;;;;;;;;0.00;0.00;;;;;17.46;68.99;101414.13;5105000;27;45660;-81
2021/09/16 03:36:16;;;;;;;;;0.00;0.00;;;;;17.52;69.08;101405.31;5105338;27;45222;-83
2021/09/16 03:38:41;;;;;;;;;0.00;0.00;;;;;17.41;68.95;101374.69;5104956;27;45255;-82
2021/09/16 03:41:07;;;;;;;;;0.00;0.00;;;;;17.52;68.72;101384.25;5106141;27;45301;-82
2021/09/16 03:43:32;;;;;;;;;1.00;0.00;;;;;17.62;69.12;101390.28;5086722;27;48137;-82
2021/09/16 03:45:58;;;;;;;;;0.00;0.00;;;;;17.66;68.54;101384.97;5086681;27;45278;-82
2021/09/16 03:48:23;;;;;;;;;0.00;0.00;;;;;17.80;68.46;101400.59;5104493;27;45340;-81
2021/09/16 03:50:49;;;;;;;;;0.00;0.00;;;;;17.75;67.79;101391.91;5103694;27;45489;-82
2021/09/16 03:53:15;;;;;;;;;0.00;0.00;;;;;17.69;67.71;101378.78;5087723;27;46995;-82
2021/09/16 03:55:41;;;;;;;;;0.00;0.00;;;;;17.59;67.64;101385.94;5105319;27;45301;-82
2021/09/16 03:58:06;;;;;;;;;0.00;0.00;;;;;17.63;67.86;101403.44;5104920;27;45425;-82
2021/09/16 04:00:31;;;;;;;;;0.00;0.00;;;;;17.64;67.67;101409.56;5085589;27;45529;-82
2021/09/16 04:03:05;;;;;;;;;0.00;0.00;;;;;17.55;67.98;101410.53;5086378;27;48265;-82
2021/09/16 04:05:30;;;;;;;;;0.00;0.00;;;;;17.52;67.71;101414.06;5104934;27;45472;-82
2021/09/16 04:07:55;;;;;;;;;0.00;0.00;;;;;17.32;68.12;101380.94;5086189;27;45402;-82
2021/09/16 04:10:21;;;;;;;;;0.00;0.00;;;;;17.35;67.81;101386.16;5105171;27;45291;-83
2021/09/16 04:12:49;;;;;;;;;0.00;0.00;;;;;17.33;67.54;101390.56;5103728;27;45369;-82
2021/09/16 04:15:14;;;;;;;;;0.00;0.00;;;;;17.48;68.03;101421.13;5104998;27;45459;-83
2021/09/16 04:17:39;;;;;;;;;0.00;0.00;;;;;17.32;67.65;101395.81;5105184;27;45199;-81
2021/09/16 04:20:05;;;;;;;;;0.00;0.00;;;;;17.35;67.91;101407.22;5107617;27;45400;-82
2021/09/16 04:22:30;;;;;;;;;0.00;0.00;;;;;17.46;68.28;101422.03;5087718;27;47393;-81
2021/09/16 04:24:56;;;;;;;;;1.75;0.00;;;;;17.49;67.75;101416.75;5108681;27;45508;-81
2021/09/16 04:27:21;;;;;;;;;0.00;0.00;;;;;17.46;68.13;101417.63;5107053;27;45464;-81
2021/09/16 04:29:46;;;;;;;;;0.00;0.00;;;;;17.35;68.61;101411.59;5106060;27;45566;-81
2021/09/16 04:32:12;;;;;;;;;0.00;0.00;;;;;17.27;67.96;101390.59;5086557;27;47570;-82
2021/09/16 04:34:37;;;;;;;;;0.00;0.00;;;;;17.53;67.81;101418.44;5105425;27;45561;-82
2021/09/16 04:37:04;;;;;;;;;0.00;0.00;;;;;17.22;67.72;101366.97;5104288;27;45471;-81
2021/09/16 04:39:29;;;;;;;;;0.00;0.00;;;;;17.66;67.86;101419.19;5105527;27;45337;-82
2021/09/16 04:41:54;;;;;;;;;0.00;0.00;;;;;17.56;67.52;101397.38;5085989;27;48230;-82
2021/09/16 04:44:20;;;;;;;;;1.00;1.00;;;;;17.49;67.85;101379.91;5104374;27;45363;-82
2021/09/16 04:46:45;;;;;;;;;0.00;0.00;;;;;17.42;67.48;101362.41;5104103;27;45421;-82
2021/09/16 04:49:10;;;;;;;;;0.00;0.00;;;;;17.72;67.59;101415.63;5088801;27;45572;-82
2021/09/16 04:51:39;;;;;;;;;0.75;0.00;;;;;17.71;67.64;101421.78;5085901;27;46487;-83
2021/09/16 04:54:08;;;;;;;;;0.00;0.00;;;;;17.58;67.58;101397.34;5104247;27;45366;-83
2021/09/16 04:56:34;;;;;;;;;1.00;0.00;;;;;17.67;67.58;101414.81;5104051;27;45376;-82
2021/09/16 04:58:59;;;;;;;;;0.00;0.00;;;;;17.29;67.51;101362.53;5104880;27;45284;-82
2021/09/16 05:01:24;;;;;;;;;0.00;0.00;;;;;17.48;67.46;101414.97;5086031;27;47395;-83
2021/09/16 05:03:50;;;;;;;;;0.00;0.00;;;;;17.50;67.33;101415.84;5103143;27;45848;-82
2021/09/16 05:06:15;;;;;;;;;0.00;0.00;;;;;17.47;68.16;101422.03;5103856;27;45284;-82
2021/09/16 05:08:42;;;;;;;;;0.00;0.00;;;;;17.35;67.58;101401.94;5103654;27;45380;-83
2021/09/16 05:11:08;;;;;;;;;0.00;0.00;;;;;17.24;67.87;101393.25;5107902;27;46155;-83
2021/09/16 05:13:33;;;;;;;;;0.75;0.00;;;;;17.21;67.31;101375.75;5084943;27;45267;-83
2021/09/16 05:15:59;;;;;;;;;0.00;0.00;;;;;17.30;67.22;101390.56;5084880;27;45489;-83
2021/09/16 05:18:24;;;;;;;;;0.00;0.00;;;;;17.53;67.63;101434.25;5084654;27;45429;-83
2021/09/16 05:20:49;;;;;;;;;0.00;0.00;;;;;17.29;67.48;101385.34;5128888;27;48008;-82
2021/09/16 05:23:14;;;;;;;;;0.00;0.00;;;;;17.50;67.10;101421.09;5103517;27;45154;-83
2021/09/16 05:25:40;;;;;;;;;1.00;1.00;;;;;17.56;67.39;101438.59;5083710;27;46848;-82
2021/09/16 05:28:05;;;;;;;;;0.00;0.00;;;;;17.50;67.70;101447.44;5103749;27;45410;-82
2021/09/16 05:30:31;;;;;;;;;0.00;0.00;;;;;17.26;67.26;101402.03;5084888;27;48262;-81
2021/09/16 05:32:56;;;;;;;;;0.00;0.00;;;;;17.45;67.78;101434.31;5101944;27;45460;-82
2021/09/16 05:35:21;;;;;;;;;0.00;0.00;;;;;17.35;67.59;101420.38;5102815;27;45845;-82
2021/09/16 05:37:50;;;;;;;;;0.25;0.25;;;;;17.43;67.35;101448.38;5083542;27;45605;-85
2021/09/16 05:40:16;;;;;;;;;0.00;0.00;;;;;17.04;67.67;101411.81;5084190;27;46870;-83
2021/09/16 05:42:42;;;;;;;;;0.00;0.00;;;;;16.83;67.83;101397.94;5083913;27;45413;-82
2021/09/16 05:45:09;;;;;;;;;0.00;0.00;;;;;16.79;68.35;101414.63;5082614;27;45448;-83
2021/09/16 05:47:34;;;;;;;;;0.00;0.00;;;;;16.97;68.94;101448.66;5083138;27;45461;-84
2021/09/16 05:50:00;;;;;;;;;0.00;0.00;;;;;16.43;68.86;101352.66;5101941;27;45639;-84
2021/09/16 05:52:27;;;;;;;;;0.00;0.00;;;;;16.97;68.77;101448.66;5084409;27;45378;-84
2021/09/16 05:54:52;;;;;;;;;0.00;0.00;;;;;17.03;68.47;101453.00;5085399;27;45270;-83
2021/09/16 05:57:18;;;;;;;;;0.00;0.00;;;;;17.01;69.08;101448.66;5083491;27;45542;-83
2021/09/16 05:59:43;;;;;;;;;0.25;0.25;;;;;16.57;69.19;101377.97;5083430;27;46987;-82
2021/09/16 06:02:08;;;;;;;;;0.00;0.00;;;;;17.04;69.12;101451.25;5086807;27;45272;-80
2021/09/16 06:04:33;;;;;;;;;0.00;0.00;;;;;17.06;69.05;101454.78;5103916;27;45303;-81
2021/09/16 06:07:05;;;;;;;;;0.00;0.00;;;;;16.90;68.90;101423.31;5105680;27;45337;-81
2021/09/16 06:09:31;;;;;;;;;0.00;0.00;;;;;17.16;68.92;101460.84;5109550;27;45305;-80
2021/09/16 06:11:59;;;;;;;;;0.00;0.00;;;;;17.09;68.39;101447.75;5105509;27;45313;-80
2021/09/16 06:14:24;;;;;;;;;0.00;0.00;;;;;17.14;68.41;101462.63;5104555;27;45484;-81
2021/09/16 06:16:52;;;;;;;;;1.00;0.00;;;;;17.12;68.30;101446.00;5102320;27;45429;-80
2021/09/16 06:19:17;;;;;;;;;0.00;0.00;;;;;17.18;67.86;101446.81;5101742;27;45553;-82
2021/09/16 06:21:43;;;;;;;;;0.00;0.00;;;;;17.07;67.54;101424.97;5103609;27;44751;-80
2021/09/16 06:24:08;;;;;;;;;1.00;0.00;;;;;17.12;67.34;101428.44;5101410;27;45415;-82
2021/09/16 06:26:33;;;;;;;;;0.00;0.00;;;;;17.56;67.39;101480.72;5103471;27;45463;-80
2021/09/16 06:28:59;;;;;;;;;0.50;0.50;;;;;17.65;67.25;101485.03;5101875;27;45384;-81
2021/09/16 06:31:24;;;;;;;;;1.00;0.75;;;;;17.56;66.94;101478.09;5102861;27;45436;-83
2021/09/16 06:33:50;;;;;;;;;0.50;0.00;;;;;17.29;66.67;101435.31;5089332;27;45400;-81
2021/09/16 06:36:15;;;;;;;;;0.00;0.00;;;;;17.44;66.79;101484.31;5101608;27;45384;-81
2021/09/16 06:38:40;;;;;;;;;0.00;0.00;;;;;17.44;66.93;101487.84;5104466;27;46104;-83
2021/09/16 06:41:06;;;;;;;;;1.50;1.00;;;;;17.44;66.73;101485.22;5083180;27;45489;-81
2021/09/16 06:43:31;;;;;;;;;0.00;0.00;;;;;17.30;66.29;101460.78;5100903;27;45529;-83
2021/09/16 06:45:57;;;;;;;;;1.00;0.00;;;;;17.35;66.55;101466.84;5102064;27;45267;-83
2021/09/16 06:48:22;;;;;;;;;0.00;0.00;;;;;17.58;66.33;101508.75;5103851;27;45217;-85
2021/09/16 06:50:47;;;;;;;;;0.00;0.00;;;;;17.44;66.41;101481.69;5103060;27;44756;-83
2021/09/16 06:53:13;;;;;;;;;0.00;0.00;;;;;17.57;66.09;101499.13;5100450;27;45504;-84
2021/09/16 06:55:39;;;;;;;;;0.00;0.00;;;;;17.63;66.44;101503.47;5101314;27;45377;-86
2021/09/16 06:58:04;;;;;;;;;0.00;0.00;;;;;17.58;66.44;101492.13;5084395;27;46853;-84
2021/09/16 07:00:30;;;;;;;;;0.00;0.00;;;;;17.58;66.42;101478.97;5090957;27;45420;-83
2021/09/16 07:02:55;;;;;;;;;0.00;0.00;;;;;17.32;65.70;101432.66;5092430;27;45653;-81
2021/09/16 07:05:21;;;;;;;;;0.00;0.00;;;;;17.78;65.85;101504.22;5122829;27;45408;-83
2021/09/16 07:07:46;;;;;;;;;0.00;0.00;;;;;17.44;66.00;101432.56;5106476;27;45463;-83
2021/09/16 07:10:12;;;;;;;;;0.00;0.00;;;;;17.92;66.02;101489.13;5091522;27;45390;-83
2021/09/16 07:12:37;;;;;;;;;0.00;0.00;;;;;17.73;65.43;101455.09;5107120;27;45310;-84
2021/09/16 07:15:03;;;;;;;;;0.00;0.00;;;;;17.96;64.99;101484.72;5066905;28;45405;-82
2021/09/16 07:17:29;;;;;;;;;1.00;0.00;;;;;17.89;64.90;101483.06;5088357;28;45284;-85
2021/09/16 07:19:54;;;;;;;;;0.00;0.00;;;;;17.87;65.01;101469.91;5103501;27;45273;-84
2021/09/16 07:22:20;;;;;;;;;2.00;0.00;;;;;18.12;64.87;101509.19;5107752;27;45511;-85
2021/09/16 07:24:45;;;;;;;;;0.75;0.00;;;;;17.86;64.87;101452.34;5085706;27;45522;-82
2021/09/16 07:27:11;;;;;;;;;0.00;0.00;;;;;18.11;65.13;101499.53;5085645;27;47406;-81
2021/09/16 07:29:36;;;;;;;;;0.00;0.00;;;;;18.27;64.82;101515.16;5084513;27;45657;-84
2021/09/16 07:32:03;;;;;;;;;0.25;0.00;;;;;18.22;64.44;101497.66;5103017;27;45587;-83
2021/09/16 07:34:28;;;;;;;;;0.00;0.00;;;;;18.21;64.39;101501.19;5085642;27;45597;-84
2021/09/16 07:36:53;;;;;;;;;0.00;0.00;;;;;18.42;64.29;101524.66;5084781;27;47306;-82
2021/09/16 07:39:21;;;;;;;;;0.75;0.25;;;;;18.19;64.05;101505.59;5084640;27;45474;-82
2021/09/16 07:41:47;;;;;;;;;0.00;0.00;;;;;18.36;63.83;101525.59;5103951;27;45349;-83
2021/09/16 07:44:13;;;;;;;;;1.00;0.00;;;;;18.38;63.16;101531.75;5089162;27;44872;-84
2021/09/16 07:46:38;;;;;;;;;0.00;0.00;;;;;18.20;63.11;101494.19;5106943;27;46199;-82
2021/09/16 07:49:04;;;;;;;;;0.00;0.00;;;;;18.41;62.96;101528.19;5111257;27;45443;-81
2021/09/16 07:51:29;;;;;;;;;0.00;0.00;;;;;18.43;63.07;101529.03;5105510;27;45430;-81
2021/09/16 07:53:55;;;;;;;;;2.75;1.25;;;;;18.27;62.69;101494.09;5103436;27;45578;-81
2021/09/16 07:56:20;;;;;;;;;0.00;0.00;;;;;18.42;62.80;101511.47;5089172;27;48226;-83
2021/09/16 07:58:46;;;;;;;;;0.25;0.00;;;;;18.60;63.01;101526.22;5102488;27;45349;-81
2021/09/16 08:01:12;;;;;;;;;0.25;0.00;;;;;18.56;62.41;101514.81;5084768;27;45304;-83
2021/09/16 08:03:38;;;;;;;;;1.00;0.00;;;;;18.57;62.55;101507.78;5104876;27;45401;-81
2021/09/16 08:06:04;;;;;;;;;0.25;0.00;;;;;18.71;62.09;101521.66;5107150;27;45380;-84
2021/09/16 08:08:30;;;;;;;;;0.00;0.00;;;;;18.81;61.46;101529.47;5094865;27;45368;-82
2021/09/16 08:10:56;;;;;;;;;3.25;0.50;;;;;18.68;61.45;101512.94;5105226;27;45443;-84
2021/09/16 08:13:22;;;;;;;;;0.50;0.50;;;;;18.90;61.45;101541.66;5116316;27;45445;-84
2021/09/16 08:15:47;;;;;;;;;0.00;0.00;;;;;18.69;61.25;101491.81;5082930;27;47447;-83
2021/09/16 08:18:12;;;;;;;;;0.00;0.00;;;;;18.77;60.52;101488.22;5102694;27;45421;-83
2021/09/16 08:20:44;;;;;;;;;2.00;2.00;;;;;19.20;60.39;101547.44;5087480;27;45748;-83
2021/09/16 08:23:09;;;;;;;;;0.00;0.00;;;;;19.31;60.34;101550.78;5096705;27;45335;-82
2021/09/16 08:25:35;;;;;;;;;0.00;0.00;;;;;19.19;60.21;101519.28;5085405;27;46284;-84
2021/09/16 08:28:01;;;;;;;;;0.50;0.50;;;;;19.27;59.63;101535.00;5103271;27;45326;-86
2021/09/16 08:30:27;;;;;;;;;0.00;0.00;;;;;18.97;59.75;101480.00;5118629;27;45476;-82
2021/09/16 08:32:53;;;;;;;;;0.00;0.00;;;;;19.26;59.09;101517.44;5104250;27;45508;-82
2021/09/16 08:35:19;;;;;;;;;0.00;0.00;;;;;19.26;58.88;101510.38;5103594;27;45365;-82
2021/09/16 08:37:45;;;;;;;;;0.00;0.00;;;;;19.13;59.37;101478.03;5105536;27;45353;-81
2021/09/16 08:40:11;;;;;;;;;0.50;0.50;;;;;19.50;59.64;101516.16;5103386;27;45314;-83
2021/09/16 08:42:39;;;;;;;;;0.00;0.00;;;;;19.53;58.82;101513.47;5103233;27;45323;-82
2021/09/16 08:45:07;;;;;;;;;0.00;0.00;;;;;19.64;57.57;101537.06;5103318;27;46280;-82
2021/09/16 08:47:36;;;;;;;;;0.00;0.00;;;;;19.77;57.47;101534.19;5102924;27;45262;-82
2021/09/16 08:50:03;;;;;;;;;0.00;0.00;;;;;19.90;57.64;101541.00;5101548;27;45436;-81
2021/09/16 08:52:29;;;;;;;;;0.00;0.00;;;;;19.92;57.12;101511.91;5102203;27;45562;-80
2021/09/16 08:54:56;;;;;;;;;0.00;0.00;;;;;20.04;56.54;101522.31;5084155;27;47486;-80
2021/09/16 08:57:23;;;;;;;;;0.00;0.00;;;;;20.16;56.11;101529.13;5102453;27;45271;-81
2021/09/16 08:59:48;;;;;;;;;0.00;0.00;;;;;20.30;55.91;101543.88;5095557;27;45422;-82
2021/09/16 09:02:14;;;;;;;;;0.00;0.00;;;;;20.34;55.42;101542.91;5064080;28;45618;-82
2021/09/16 09:04:40;;;;;;;;;0.00;0.00;;;;;20.29;55.44;101526.22;5083229;28;45323;-81
2021/09/16 09:07:06;;;;;;;;;0.00;0.00;;;;;20.51;54.67;101542.53;5099630;27;45411;-80
2021/09/16 09:09:32;;;;;;;;;0.00;0.00;;;;;20.60;53.59;101550.31;5083482;27;45331;-80
2021/09/16 09:12:10;;;;;;;;;0.00;0.00;;;;;20.52;53.86;101509.91;5083900;27;45545;-82
2021/09/16 09:14:39;;;;;;;;;0.00;0.00;;;;;20.67;54.08;101531.66;5061929;28;46199;-82
2021/09/16 09:17:22;;;;;;;;;0.00;0.00;;;;;20.84;53.36;101553.34;5043596;28;45240;-80
2021/09/16 09:19:51;;;;;;;;;0.00;0.00;;;;;20.98;54.44;101553.03;5045634;28;45286;-82
2021/09/16 09:22:18;;;;;;;;;0.00;0.00;;;;;20.97;53.29;101538.06;5071437;27;45240;-82
2021/09/16 09:24:46;;;;;;;;;0.50;0.50;;;;;20.90;52.63;101533.84;5083356;27;46355;-81
2021/09/16 09:27:24;;;;;;;;;0.00;0.00;;;;;21.01;52.76;101530.97;5080380;28;45309;-81
2021/09/16 09:30:12;;;;;;;;;0.00;0.00;;;;;20.99;52.59;101507.16;5080804;28;45227;-84
2021/09/16 09:32:53;;;;;;;;;0.00;0.00;;;;;21.30;52.39;101563.81;5064780;28;45338;-83
2021/09/16 09:35:29;;;;;;;;;0.00;0.00;;;;;21.38;52.11;101555.69;5082259;28;45725;-83
2021/09/16 09:37:57;;;;;;;;;0.00;0.00;;;;;21.29;51.51;101529.44;5062967;28;45370;-83
2021/09/16 09:40:33;;;;;;;;;0.00;0.00;;;;;21.44;50.96;101558.16;5082320;28;45260;-83
2021/09/16 09:43:26;;;;;;;;;0.00;0.00;;;;;21.20;51.47;101509.34;5107166;27;45371;-83
2021/09/16 09:45:59;;;;;;;;;0.00;0.00;;;;;21.43;51.61;101551.16;5084667;27;47584;-83
2021/09/16 09:48:24;;;;;;;;;0.00;0.00;;;;;21.31;50.11;101538.22;5083771;27;45935;-83
2021/09/16 09:50:51;;;;;;;;;0.00;0.00;;;;;21.32;51.09;101547.91;5102280;27;45124;-83
2021/09/16 09:53:17;;;;;;;;;0.00;0.00;;;;;21.31;50.69;101539.06;5067069;28;45247;-84
2021/09/16 09:55:43;;;;;;;;;0.00;0.00;;;;;21.52;51.13;101542.09;5083615;28;45318;-86
2021/09/16 09:58:08;;;;;;;;;2.50;0.00;;;;;21.65;50.19;101554.13;5081880;28;45456;-86
2021/09/16 10:00:34;;;;;;;;;0.00;0.00;;;;;21.52;50.16;101558.88;5094695;27;45436;-82
2021/09/16 10:03:00;;;;;;;;;0.00;0.00;;;;;21.40;50.31;101551.22;5103622;27;45456;-81
2021/09/16 10:05:38;;;;;;;;;0.00;0.00;;;;;21.43;50.55;101543.19;5105501;27;45467;-82
2021/09/16 10:08:09;;;;;;;;;0.00;0.00;;;;;21.63;50.22;101560.38;5102810;27;45259;-82
2021/09/16 10:10:38;;;;;;;;;0.00;0.00;;;;;21.66;49.68;101549.72;5105892;27;45421;-83
2021/09/16 10:13:04;;;;;;;;;0.00;0.00;;;;;21.71;50.00;101552.25;5085414;27;45262;-83
2021/09/16 10:15:29;;;;;;;;;0.00;0.00;;;;;21.72;49.25;101557.53;5103473;27;45584;-81
2021/09/16 10:17:55;;;;;;;;;0.00;0.00;;;;;21.66;49.05;101552.38;5106432;27;45424;-82
2021/09/16 10:20:23;;;;;;;;;0.00;0.00;;;;;21.60;49.32;101542.81;5087456;27;45250;-82
2021/09/16 10:22:54;;;;;;;;;0.00;0.00;;;;;21.62;49.79;101545.41;5104915;27;46468;-81
2021/09/16 10:25:23;;;;;;;;;0.00;0.00;;;;;21.42;48.93;101517.63;5086086;27;48162;-82
2021/09/16 10:28:06;;;;;;;;;0.50;0.00;;;;;21.55;50.29;101536.72;5103051;27;45455;-82
2021/09/16 10:30:33;;;;;;;;;0.00;0.00;;;;;21.26;49.28;101488.88;5104979;27;45171;-81
2021/09/16 10:33:04;;;;;;;;;0.00;0.00;;;;;21.54;50.14;101532.34;5086817;27;45465;-81
2021/09/16 10:35:31;;;;;;;;;0.00;0.00;;;;;21.55;50.23;101517.31;5089314;27;47514;-81
2021/09/16 10:38:26;;;;;;;;;0.75;0.00;;;;;21.83;49.99;101540.47;5107566;27;45254;-82
2021/09/16 10:41:11;;;;;;;;;0.00;0.00;;;;;21.91;48.86;101535.88;5110447;27;45508;-82
2021/09/16 10:43:36;;;;;;;;;0.00;0.00;;;;;21.92;49.00;101529.63;5103498;27;45222;-83
2021/09/16 10:46:44;;;;;;;;;0.00;0.00;;;;;21.83;49.48;101529.88;5106952;27;46216;-82
2021/09/16 10:49:21;;;;;;;;;0.00;0.00;;;;;21.72;49.42;101535.44;5107491;27;45526;-82
2021/09/16 10:51:54;;;;;;;;;0.00;0.00;;;;;21.61;49.12;101506.56;5108535;27;45305;-82
2021/09/16 10:54:22;;;;;;;;;0.00;0.00;;;;;21.75;48.83;101536.25;5110796;27;45504;-82
2021/09/16 10:57:02;;;;;;;;;0.00;0.00;;;;;21.61;48.74;101515.38;5108095;27;46284;-82
2021/09/16 10:59:52;;;;;;;;;0.00;0.00;;;;;21.74;48.59;101534.47;5104673;27;46021;-83
2021/09/16 11:02:48;;;;;;;;;0.00;0.00;;;;;21.73;48.82;101531.88;5082347;27;45628;-83
2021/09/16 11:05:18;;;;;;;;;0.00;0.00;;;;;21.46;48.17;101482.22;5090211;27;45410;-83
2021/09/16 11:07:53;;;;;;;;;0.00;0.00;;;;;21.37;48.49;101516.88;5099328;27;46057;-83
2021/09/16 11:10:21;;;;;;;;;0.00;0.00;;;;;21.27;49.22;101519.75;5095391;27;45393;-82
2021/09/16 11:12:57;;;;;;;;;0.00;0.00;;;;;21.38;49.52;101531.88;5078559;27;45325;-80
2021/09/16 11:15:34;;;;;;;;;0.00;0.00;;;;;21.46;48.74;101526.34;5093603;27;45338;-81
2021/09/16 11:18:16;;;;;;;;;0.00;0.00;;;;;21.46;49.03;101506.06;5074075;27;47380;-83
2021/09/16 11:20:45;;;;;;;;;0.00;0.00;;;;;21.57;47.77;101503.13;5100150;27;45345;-83
2021/09/16 11:23:10;;;;;;;;;0.25;0.00;;;;;21.64;48.18;101493.25;5096152;27;45362;-83